sensor_id;sensor_type;location;lat;lon;timestamp;temperature;humidity
19058;DHT22;9662;53.612;9.914;2022-08-19T00:00:30;22.40;99.90
19058;DHT22;9662;53.612;9.914;2022-08-19T00:02:57;22.40;99.90
19058;DHT22;9662;53.612;9.914;2022-08-19T00:05:24;22.40;99.90
19058;DHT22;9662;53.612;9.914;2022-08-19T00:07:51;22.30;99.90
19058;DHT22;9662;53.612;9.914;2022-08-19T00:10:20;21.30;99.90
19058;DHT22;9662;53.612;9.914;2022-08-19T00:12:47;21.60;99.90
19058;DHT22;9662;53.612;9.914;2022-08-19T00:15:16;21.90;99.90
19058;DHT22;9662;53.612;9.914;2022-08-19T00:17:44;22.00;99.90
19058;DHT22;9662;53.612;9.914;2022-08-19T00:20:14;22.10;99.90
19058;DHT22;9662;53.612;9.914;2022-08-19T00:22:43;22.30;99.90
19058;DHT22;9662;53.612;9.914;2022-08-19T00:25:10;22.30;99.90
19058;DHT22;9662;53.612;9.914;2022-08-19T00:27:38;21.60;99.90
19058;DHT22;9662;53.612;9.914;2022-08-19T00:30:06;21.60;99.90
19058;DHT22;9662;53.612;9.914;2022-08-19T00:32:34;21.30;99.90
19058;DHT22;9662;53.612;9.914;2022-08-19T00:35:01;21.40;99.90
19058;DHT22;9662;53.612;9.914;2022-08-19T00:37:29;21.30;99.90
19058;DHT22;9662;53.612;9.914;2022-08-19T00:39:55;21.70;99.90
19058;DHT22;9662;53.612;9.914;2022-08-19T00:42:22;21.70;99.90
19058;DHT22;9662;53.612;9.914;2022-08-19T00:44:50;21.90;99.90
19058;DHT22;9662;53.612;9.914;2022-08-19T00:47:17;22.00;99.90
19058;DHT22;9662;53.612;9.914;2022-08-19T00:49:48;22.00;99.90
19058;DHT22;9662;53.612;9.914;2022-08-19T00:52:20;22.00;99.90
19058;DHT22;9662;53.612;9.914;2022-08-19T00:54:48;21.90;99.90
19058;DHT22;9662;53.612;9.914;2022-08-19T00:57:18;21.80;99.90
19058;DHT22;9662;53.612;9.914;2022-08-19T00:59:53;21.50;99.90
19058;DHT22;9662;53.612;9.914;2022-08-19T01:02:20;21.20;99.90
19058;DHT22;9662;53.612;9.914;2022-08-19T01:04:47;21.40;99.90
19058;DHT22;9662;53.612;9.914;2022-08-19T01:07:14;21.20;99.90
19058;DHT22;9662;53.612;9.914;2022-08-19T01:09:40;20.80;99.90
19058;DHT22;9662;53.612;9.914;2022-08-19T01:12:07;21.20;99.90
19058;DHT22;9662;53.612;9.914;2022-08-19T01:14:35;21.40;99.90
19058;DHT22;9662;53.612;9.914;2022-08-19T01:17:04;21.40;99.90
19058;DHT22;9662;53.612;9.914;2022-08-19T01:19:34;21.60;99.90
19058;DHT22;9662;53.612;9.914;2022-08-19T01:22:06;21.50;99.90
19058;DHT22;9662;53.612;9.914;2022-08-19T01:24:36;21.70;99.90
19058;DHT22;9662;53.612;9.914;2022-08-19T01:27:03;21.90;99.90
19058;DHT22;9662;53.612;9.914;2022-08-19T01:29:30;21.80;99.90
19058;DHT22;9662;53.612;9.914;2022-08-19T01:31:58;21.70;99.90
19058;DHT22;9662;53.612;9.914;2022-08-19T01:34:25;21.80;99.90
19058;DHT22;9662;53.612;9.914;2022-08-19T01:36:52;21.70;99.90
19058;DHT22;9662;53.612;9.914;2022-08-19T01:39:21;21.40;99.90
19058;DHT22;9662;53.612;9.914;2022-08-19T01:41:50;21.70;99.90
19058;DHT22;9662;53.612;9.914;2022-08-19T01:44:20;21.40;99.90
19058;DHT22;9662;53.612;9.914;2022-08-19T01:46:50;21.30;99.90
19058;DHT22;9662;53.612;9.914;2022-08-19T01:49:19;21.30;99.90
19058;DHT22;9662;53.612;9.914;2022-08-19T01:51:47;21.40;99.90
19058;DHT22;9662;53.612;9.914;2022-08-19T01:54:16;21.70;99.90
19058;DHT22;9662;53.612;9.914;2022-08-19T01:56:44;21.90;99.90
19058;DHT22;9662;53.612;9.914;2022-08-19T01:59:14;22.10;99.90
19058;DHT22;9662;53.612;9.914;2022-08-19T02:01:42;21.60;99.90
19058;DHT22;9662;53.612;9.914;2022-08-19T02:04:09;21.50;99.90
19058;DHT22;9662;53.612;9.914;2022-08-19T02:06:37;20.90;99.90
19058;DHT22;9662;53.612;9.914;2022-08-19T02:09:05;20.50;99.90
19058;DHT22;9662;53.612;9.914;2022-08-19T02:11:34;20.70;99.90
19058;DHT22;9662;53.612;9.914;2022-08-19T02:14:03;20.90;99.90
19058;DHT22;9662;53.612;9.914;2022-08-19T02:16:33;21.10;99.90
19058;DHT22;9662;53.612;9.914;2022-08-19T02:18:59;21.10;99.90
19058;DHT22;9662;53.612;9.914;2022-08-19T02:21:27;21.30;99.90
19058;DHT22;9662;53.612;9.914;2022-08-19T02:23:54;21.30;99.90
19058;DHT22;9662;53.612;9.914;2022-08-19T02:26:21;21.20;99.90
19058;DHT22;9662;53.612;9.914;2022-08-19T02:28:48;21.20;99.90
19058;DHT22;9662;53.612;9.914;2022-08-19T02:31:17;21.40;99.90
19058;DHT22;9662;53.612;9.914;2022-08-19T02:33:47;21.60;99.90
19058;DHT22;9662;53.612;9.914;2022-08-19T02:36:16;21.00;99.90
19058;DHT22;9662;53.612;9.914;2022-08-19T02:38:43;21.20;99.90
19058;DHT22;9662;53.612;9.914;2022-08-19T02:41:13;21.30;99.90
19058;DHT22;9662;53.612;9.914;2022-08-19T02:43:40;21.30;99.90
19058;DHT22;9662;53.612;9.914;2022-08-19T02:46:15;21.20;99.90
19058;DHT22;9662;53.612;9.914;2022-08-19T02:48:48;21.20;99.90
19058;DHT22;9662;53.612;9.914;2022-08-19T02:51:19;21.30;99.90
19058;DHT22;9662;53.612;9.914;2022-08-19T02:53:46;21.30;99.90
19058;DHT22;9662;53.612;9.914;2022-08-19T02:56:13;20.80;99.90
19058;DHT22;9662;53.612;9.914;2022-08-19T02:58:40;20.80;99.90
19058;DHT22;9662;53.612;9.914;2022-08-19T03:01:09;20.50;99.90
19058;DHT22;9662;53.612;9.914;2022-08-19T03:03:36;20.40;99.90
19058;DHT22;9662;53.612;9.914;2022-08-19T03:06:10;20.40;99.90
19058;DHT22;9662;53.612;9.914;2022-08-19T03:08:39;20.90;99.90
19058;DHT22;9662;53.612;9.914;2022-08-19T03:11:11;21.10;99.90
19058;DHT22;9662;53.612;9.914;2022-08-19T03:13:38;21.40;99.90
19058;DHT22;9662;53.612;9.914;2022-08-19T03:16:05;21.60;99.90
19058;DHT22;9662;53.612;9.914;2022-08-19T03:18:32;21.60;99.90
19058;DHT22;9662;53.612;9.914;2022-08-19T03:20:58;21.60;99.90
19058;DHT22;9662;53.612;9.914;2022-08-19T03:23:27;21.20;99.90
19058;DHT22;9662;53.612;9.914;2022-08-19T03:25:53;21.20;99.90
19058;DHT22;9662;53.612;9.914;2022-08-19T03:28:21;21.30;99.90
19058;DHT22;9662;53.612;9.914;2022-08-19T03:30:58;20.60;99.90
19058;DHT22;9662;53.612;9.914;2022-08-19T03:33:26;21.10;99.90
19058;DHT22;9662;53.612;9.914;2022-08-19T03:36:05;21.10;99.90
19058;DHT22;9662;53.612;9.914;2022-08-19T03:38:34;21.20;99.90
19058;DHT22;9662;53.612;9.914;2022-08-19T03:41:06;21.30;99.90
19058;DHT22;9662;53.612;9.914;2022-08-19T03:43:35;21.30;99.90
19058;DHT22;9662;53.612;9.914;2022-08-19T03:46:03;21.40;99.90
19058;DHT22;9662;53.612;9.914;2022-08-19T03:48:31;21.50;99.90
19058;DHT22;9662;53.612;9.914;2022-08-19T03:50:58;21.60;99.90
19058;DHT22;9662;53.612;9.914;2022-08-19T03:53:26;21.50;99.90
19058;DHT22;9662;53.612;9.914;2022-08-19T03:55:55;21.40;99.90
19058;DHT22;9662;53.612;9.914;2022-08-19T03:58:22;21.40;99.90
19058;DHT22;9662;53.612;9.914;2022-08-19T04:00:50;21.30;99.90
19058;DHT22;9662;53.612;9.914;2022-08-19T04:03:17;21.30;99.90
19058;DHT22;9662;53.612;9.914;2022-08-19T04:05:45;21.40;99.90
19058;DHT22;9662;53.612;9.914;2022-08-19T04:08:12;21.50;99.90
19058;DHT22;9662;53.612;9.914;2022-08-19T04:10:45;21.50;99.90
19058;DHT22;9662;53.612;9.914;2022-08-19T04:13:14;20.90;99.90
19058;DHT22;9662;53.612;9.914;2022-08-19T04:15:42;21.00;99.90
19058;DHT22;9662;53.612;9.914;2022-08-19T04:18:09;20.90;99.90
19058;DHT22;9662;53.612;9.914;2022-08-19T04:20:41;20.80;99.90
19058;DHT22;9662;53.612;9.914;2022-08-19T04:23:08;20.70;99.90
19058;DHT22;9662;53.612;9.914;2022-08-19T04:25:37;20.60;99.90
19058;DHT22;9662;53.612;9.914;2022-08-19T04:28:04;20.60;99.90
19058;DHT22;9662;53.612;9.914;2022-08-19T04:30:37;20.70;99.90
19058;DHT22;9662;53.612;9.914;2022-08-19T04:33:04;20.80;99.90
19058;DHT22;9662;53.612;9.914;2022-08-19T04:35:35;21.10;99.90
19058;DHT22;9662;53.612;9.914;2022-08-19T04:38:02;21.20;99.90
19058;DHT22;9662;53.612;9.914;2022-08-19T04:40:28;21.20;99.90
19058;DHT22;9662;53.612;9.914;2022-08-19T04:43:12;21.20;99.90
19058;DHT22;9662;53.612;9.914;2022-08-19T04:45:42;21.10;99.90
19058;DHT22;9662;53.612;9.914;2022-08-19T04:48:09;21.00;99.90
19058;DHT22;9662;53.612;9.914;2022-08-19T04:50:39;20.60;99.90
19058;DHT22;9662;53.612;9.914;2022-08-19T04:53:06;20.00;99.90
19058;DHT22;9662;53.612;9.914;2022-08-19T04:55:33;20.50;99.90
19058;DHT22;9662;53.612;9.914;2022-08-19T04:58:01;20.90;99.90
19058;DHT22;9662;53.612;9.914;2022-08-19T05:00:28;21.20;99.90
19058;DHT22;9662;53.612;9.914;2022-08-19T05:02:56;21.30;99.90
19058;DHT22;9662;53.612;9.914;2022-08-19T05:05:23;21.00;99.90
19058;DHT22;9662;53.612;9.914;2022-08-19T05:07:49;21.20;99.90
19058;DHT22;9662;53.612;9.914;2022-08-19T05:10:16;20.90;99.90
19058;DHT22;9662;53.612;9.914;2022-08-19T05:12:43;21.00;99.90
19058;DHT22;9662;53.612;9.914;2022-08-19T05:15:10;21.30;99.90
19058;DHT22;9662;53.612;9.914;2022-08-19T05:17:37;21.30;99.90
19058;DHT22;9662;53.612;9.914;2022-08-19T05:20:25;21.40;99.90
19058;DHT22;9662;53.612;9.914;2022-08-19T05:23:10;21.50;99.90
19058;DHT22;9662;53.612;9.914;2022-08-19T05:25:40;21.50;99.90
19058;DHT22;9662;53.612;9.914;2022-08-19T05:28:07;21.50;99.90
19058;DHT22;9662;53.612;9.914;2022-08-19T05:30:33;21.40;99.90
19058;DHT22;9662;53.612;9.914;2022-08-19T05:33:00;21.50;99.90
19058;DHT22;9662;53.612;9.914;2022-08-19T05:35:28;21.10;99.90
19058;DHT22;9662;53.612;9.914;2022-08-19T05:37:56;21.30;99.90
19058;DHT22;9662;53.612;9.914;2022-08-19T05:40:22;21.30;99.90
19058;DHT22;9662;53.612;9.914;2022-08-19T05:42:49;21.20;99.90
19058;DHT22;9662;53.612;9.914;2022-08-19T05:45:17;21.30;99.90
19058;DHT22;9662;53.612;9.914;2022-08-19T05:47:43;21.30;99.90
19058;DHT22;9662;53.612;9.914;2022-08-19T05:50:10;21.30;99.90
19058;DHT22;9662;53.612;9.914;2022-08-19T05:52:39;21.40;99.90
19058;DHT22;9662;53.612;9.914;2022-08-19T05:55:06;21.40;99.90
19058;DHT22;9662;53.612;9.914;2022-08-19T05:57:33;21.40;99.90
19058;DHT22;9662;53.612;9.914;2022-08-19T06:00:00;21.50;99.90
19058;DHT22;9662;53.612;9.914;2022-08-19T06:02:28;21.30;99.90
19058;DHT22;9662;53.612;9.914;2022-08-19T06:04:55;21.40;99.90
19058;DHT22;9662;53.612;9.914;2022-08-19T06:07:22;21.60;99.90
19058;DHT22;9662;53.612;9.914;2022-08-19T06:09:51;21.60;99.90
19058;DHT22;9662;53.612;9.914;2022-08-19T06:12:17;21.60;99.90
19058;DHT22;9662;53.612;9.914;2022-08-19T06:14:44;21.60;99.90
19058;DHT22;9662;53.612;9.914;2022-08-19T06:17:11;21.50;99.90
19058;DHT22;9662;53.612;9.914;2022-08-19T06:19:38;21.60;99.90
19058;DHT22;9662;53.612;9.914;2022-08-19T06:22:06;21.60;99.90
19058;DHT22;9662;53.612;9.914;2022-08-19T06:24:33;21.70;99.90
19058;DHT22;9662;53.612;9.914;2022-08-19T06:27:03;21.70;99.90
19058;DHT22;9662;53.612;9.914;2022-08-19T06:29:30;21.60;99.90
19058;DHT22;9662;53.612;9.914;2022-08-19T06:31:59;21.70;99.90
19058;DHT22;9662;53.612;9.914;2022-08-19T06:34:28;21.80;99.90
19058;DHT22;9662;53.612;9.914;2022-08-19T06:36:56;21.80;99.90
19058;DHT22;9662;53.612;9.914;2022-08-19T06:39:27;21.90;99.90
19058;DHT22;9662;53.612;9.914;2022-08-19T06:41:57;21.90;99.90
19058;DHT22;9662;53.612;9.914;2022-08-19T06:44:27;21.80;99.90
19058;DHT22;9662;53.612;9.914;2022-08-19T06:46:55;21.80;99.90
19058;DHT22;9662;53.612;9.914;2022-08-19T06:49:22;21.80;99.90
19058;DHT22;9662;53.612;9.914;2022-08-19T06:51:49;21.90;99.90
19058;DHT22;9662;53.612;9.914;2022-08-19T06:54:17;21.90;99.90
19058;DHT22;9662;53.612;9.914;2022-08-19T06:56:44;21.90;99.90
19058;DHT22;9662;53.612;9.914;2022-08-19T06:59:13;22.00;99.90
19058;DHT22;9662;53.612;9.914;2022-08-19T07:01:44;22.00;99.90
19058;DHT22;9662;53.612;9.914;2022-08-19T07:04:13;22.00;99.90
19058;DHT22;9662;53.612;9.914;2022-08-19T07:06:42;21.90;99.90
19058;DHT22;9662;53.612;9.914;2022-08-19T07:09:11;22.10;99.90
19058;DHT22;9662;53.612;9.914;2022-08-19T07:11:38;22.10;99.90
19058;DHT22;9662;53.612;9.914;2022-08-19T07:14:05;22.10;99.90
19058;DHT22;9662;53.612;9.914;2022-08-19T07:16:32;22.10;99.90
19058;DHT22;9662;53.612;9.914;2022-08-19T07:19:00;21.90;99.90
19058;DHT22;9662;53.612;9.914;2022-08-19T07:21:28;21.60;99.90
19058;DHT22;9662;53.612;9.914;2022-08-19T07:23:55;21.90;99.90
19058;DHT22;9662;53.612;9.914;2022-08-19T07:26:26;22.00;99.90
19058;DHT22;9662;53.612;9.914;2022-08-19T07:28:55;22.10;99.90
19058;DHT22;9662;53.612;9.914;2022-08-19T07:31:23;22.20;99.90
19058;DHT22;9662;53.612;9.914;2022-08-19T07:33:52;22.20;99.90
19058;DHT22;9662;53.612;9.914;2022-08-19T07:36:24;22.20;99.90
19058;DHT22;9662;53.612;9.914;2022-08-19T07:38:58;22.20;99.90
19058;DHT22;9662;53.612;9.914;2022-08-19T07:41:27;21.90;99.90
19058;DHT22;9662;53.612;9.914;2022-08-19T07:43:57;22.00;99.90
19058;DHT22;9662;53.612;9.914;2022-08-19T07:46:24;21.80;99.90
19058;DHT22;9662;53.612;9.914;2022-08-19T07:48:53;22.00;99.90
19058;DHT22;9662;53.612;9.914;2022-08-19T07:51:21;22.00;99.90
19058;DHT22;9662;53.612;9.914;2022-08-19T07:53:48;22.00;99.90
19058;DHT22;9662;53.612;9.914;2022-08-19T07:56:17;22.20;99.90
19058;DHT22;9662;53.612;9.914;2022-08-19T07:58:47;22.20;99.90
19058;DHT22;9662;53.612;9.914;2022-08-19T08:01:18;22.20;99.90
19058;DHT22;9662;53.612;9.914;2022-08-19T08:03:46;22.30;99.90
19058;DHT22;9662;53.612;9.914;2022-08-19T08:06:32;22.10;99.90
19058;DHT22;9662;53.612;9.914;2022-08-19T08:09:22;22.20;99.90
19058;DHT22;9662;53.612;9.914;2022-08-19T08:11:51;22.40;99.90
19058;DHT22;9662;53.612;9.914;2022-08-19T08:14:21;22.30;99.90
19058;DHT22;9662;53.612;9.914;2022-08-19T08:16:49;22.30;99.90
19058;DHT22;9662;53.612;9.914;2022-08-19T08:19:18;22.00;99.90
19058;DHT22;9662;53.612;9.914;2022-08-19T08:21:48;22.30;99.90
19058;DHT22;9662;53.612;9.914;2022-08-19T08:24:15;22.30;99.90
19058;DHT22;9662;53.612;9.914;2022-08-19T08:26:44;22.30;99.90
19058;DHT22;9662;53.612;9.914;2022-08-19T08:29:11;22.20;99.90
19058;DHT22;9662;53.612;9.914;2022-08-19T08:31:39;22.40;99.90
19058;DHT22;9662;53.612;9.914;2022-08-19T08:34:07;22.40;99.90
19058;DHT22;9662;53.612;9.914;2022-08-19T08:36:36;22.30;99.90
19058;DHT22;9662;53.612;9.914;2022-08-19T08:39:08;22.30;99.90
19058;DHT22;9662;53.612;9.914;2022-08-19T08:41:44;22.30;99.90
19058;DHT22;9662;53.612;9.914;2022-08-19T08:44:16;22.30;99.90
19058;DHT22;9662;53.612;9.914;2022-08-19T08:46:47;22.40;99.90
19058;DHT22;9662;53.612;9.914;2022-08-19T08:49:23;22.30;99.90
19058;DHT22;9662;53.612;9.914;2022-08-19T08:51:57;22.40;99.90
19058;DHT22;9662;53.612;9.914;2022-08-19T08:54:30;22.40;99.90
19058;DHT22;9662;53.612;9.914;2022-08-19T08:56:58;22.40;99.90
19058;DHT22;9662;53.612;9.914;2022-08-19T08:59:30;22.00;99.90
19058;DHT22;9662;53.612;9.914;2022-08-19T09:01:58;21.80;99.90
19058;DHT22;9662;53.612;9.914;2022-08-19T09:04:26;22.20;99.90
19058;DHT22;9662;53.612;9.914;2022-08-19T09:07:00;22.50;99.90
19058;DHT22;9662;53.612;9.914;2022-08-19T09:09:35;22.40;99.90
19058;DHT22;9662;53.612;9.914;2022-08-19T09:12:10;22.60;99.90
19058;DHT22;9662;53.612;9.914;2022-08-19T09:14:46;22.50;99.90
19058;DHT22;9662;53.612;9.914;2022-08-19T09:17:16;22.70;99.90
19058;DHT22;9662;53.612;9.914;2022-08-19T09:19:58;23.00;99.90
19058;DHT22;9662;53.612;9.914;2022-08-19T09:22:26;22.90;99.90
19058;DHT22;9662;53.612;9.914;2022-08-19T09:24:54;22.90;99.90
19058;DHT22;9662;53.612;9.914;2022-08-19T09:27:23;22.90;99.90
19058;DHT22;9662;53.612;9.914;2022-08-19T09:29:50;22.70;99.90
19058;DHT22;9662;53.612;9.914;2022-08-19T09:32:17;22.90;99.90
19058;DHT22;9662;53.612;9.914;2022-08-19T09:34:44;22.90;99.90
19058;DHT22;9662;53.612;9.914;2022-08-19T09:37:11;22.90;99.90
19058;DHT22;9662;53.612;9.914;2022-08-19T09:39:39;22.70;99.90
19058;DHT22;9662;53.612;9.914;2022-08-19T09:42:07;22.60;99.90
19058;DHT22;9662;53.612;9.914;2022-08-19T09:44:37;22.60;99.90
19058;DHT22;9662;53.612;9.914;2022-08-19T09:47:04;22.50;99.90
19058;DHT22;9662;53.612;9.914;2022-08-19T09:49:32;22.40;99.90
19058;DHT22;9662;53.612;9.914;2022-08-19T09:51:59;22.50;99.90
19058;DHT22;9662;53.612;9.914;2022-08-19T09:54:27;22.70;99.90
19058;DHT22;9662;53.612;9.914;2022-08-19T09:56:54;23.00;99.90
19058;DHT22;9662;53.612;9.914;2022-08-19T09:59:22;22.90;99.90
19058;DHT22;9662;53.612;9.914;2022-08-19T10:01:50;23.10;99.90
19058;DHT22;9662;53.612;9.914;2022-08-19T10:04:17;23.00;99.90
19058;DHT22;9662;53.612;9.914;2022-08-19T10:06:45;22.20;99.90
19058;DHT22;9662;53.612;9.914;2022-08-19T10:09:14;21.80;99.90
19058;DHT22;9662;53.612;9.914;2022-08-19T10:11:43;22.30;99.90
19058;DHT22;9662;53.612;9.914;2022-08-19T10:14:11;21.90;99.90
19058;DHT22;9662;53.612;9.914;2022-08-19T10:16:39;22.40;99.90
19058;DHT22;9662;53.612;9.914;2022-08-19T10:19:07;22.60;99.90
19058;DHT22;9662;53.612;9.914;2022-08-19T10:21:35;22.70;99.90
19058;DHT22;9662;53.612;9.914;2022-08-19T10:24:04;22.70;99.90
19058;DHT22;9662;53.612;9.914;2022-08-19T10:26:35;22.60;99.90
19058;DHT22;9662;53.612;9.914;2022-08-19T10:29:03;22.00;99.90
19058;DHT22;9662;53.612;9.914;2022-08-19T10:31:32;22.10;99.90
19058;DHT22;9662;53.612;9.914;2022-08-19T10:34:00;21.60;99.90
19058;DHT22;9662;53.612;9.914;2022-08-19T10:36:30;22.20;99.90
19058;DHT22;9662;53.612;9.914;2022-08-19T10:38:59;22.60;99.90
19058;DHT22;9662;53.612;9.914;2022-08-19T10:41:29;22.80;99.90
19058;DHT22;9662;53.612;9.914;2022-08-19T10:43:59;22.30;99.90
19058;DHT22;9662;53.612;9.914;2022-08-19T10:46:27;22.50;99.90
19058;DHT22;9662;53.612;9.914;2022-08-19T10:48:55;22.70;99.90
19058;DHT22;9662;53.612;9.914;2022-08-19T10:51:23;22.50;99.90
19058;DHT22;9662;53.612;9.914;2022-08-19T10:54:07;22.50;99.90
19058;DHT22;9662;53.612;9.914;2022-08-19T10:56:34;22.70;99.90
19058;DHT22;9662;53.612;9.914;2022-08-19T10:59:20;23.20;99.90
19058;DHT22;9662;53.612;9.914;2022-08-19T11:01:48;22.90;99.90
19058;DHT22;9662;53.612;9.914;2022-08-19T11:04:15;23.30;99.90
19058;DHT22;9662;53.612;9.914;2022-08-19T11:06:45;23.60;99.90
19058;DHT22;9662;53.612;9.914;2022-08-19T11:09:13;23.70;99.90
19058;DHT22;9662;53.612;9.914;2022-08-19T11:11:40;23.80;99.90
19058;DHT22;9662;53.612;9.914;2022-08-19T11:14:08;23.90;99.90
19058;DHT22;9662;53.612;9.914;2022-08-19T11:16:36;24.50;99.90
19058;DHT22;9662;53.612;9.914;2022-08-19T11:19:06;24.70;99.90
19058;DHT22;9662;53.612;9.914;2022-08-19T11:21:35;24.70;99.90
19058;DHT22;9662;53.612;9.914;2022-08-19T11:24:06;25.10;99.90
19058;DHT22;9662;53.612;9.914;2022-08-19T11:26:34;25.30;99.90
19058;DHT22;9662;53.612;9.914;2022-08-19T11:29:01;25.40;99.90
19058;DHT22;9662;53.612;9.914;2022-08-19T11:31:32;25.20;99.90
19058;DHT22;9662;53.612;9.914;2022-08-19T11:34:03;25.00;99.90
19058;DHT22;9662;53.612;9.914;2022-08-19T11:36:30;24.90;99.90
19058;DHT22;9662;53.612;9.914;2022-08-19T11:38:57;24.60;99.90
19058;DHT22;9662;53.612;9.914;2022-08-19T11:41:26;23.90;99.90
19058;DHT22;9662;53.612;9.914;2022-08-19T11:43:53;24.00;99.90
19058;DHT22;9662;53.612;9.914;2022-08-19T11:46:22;24.60;99.90
19058;DHT22;9662;53.612;9.914;2022-08-19T11:48:49;24.80;99.90
19058;DHT22;9662;53.612;9.914;2022-08-19T11:51:18;24.90;99.90
19058;DHT22;9662;53.612;9.914;2022-08-19T11:53:45;24.80;99.90
19058;DHT22;9662;53.612;9.914;2022-08-19T11:56:12;25.20;99.90
19058;DHT22;9662;53.612;9.914;2022-08-19T11:58:40;25.30;99.90
19058;DHT22;9662;53.612;9.914;2022-08-19T12:01:09;25.30;99.90
19058;DHT22;9662;53.612;9.914;2022-08-19T12:03:38;25.50;99.90
19058;DHT22;9662;53.612;9.914;2022-08-19T12:06:06;24.80;99.90
19058;DHT22;9662;53.612;9.914;2022-08-19T12:08:34;24.70;99.90
19058;DHT22;9662;53.612;9.914;2022-08-19T12:11:00;24.60;99.90
19058;DHT22;9662;53.612;9.914;2022-08-19T12:13:28;24.60;99.90
19058;DHT22;9662;53.612;9.914;2022-08-19T12:15:57;24.40;99.90
19058;DHT22;9662;53.612;9.914;2022-08-19T12:18:25;24.60;99.90
19058;DHT22;9662;53.612;9.914;2022-08-19T12:20:53;24.60;99.90
19058;DHT22;9662;53.612;9.914;2022-08-19T12:23:21;23.80;99.90
19058;DHT22;9662;53.612;9.914;2022-08-19T12:25:49;24.10;99.90
19058;DHT22;9662;53.612;9.914;2022-08-19T12:28:18;24.70;99.90
19058;DHT22;9662;53.612;9.914;2022-08-19T12:30:44;25.30;99.90
19058;DHT22;9662;53.612;9.914;2022-08-19T12:33:13;25.60;99.90
19058;DHT22;9662;53.612;9.914;2022-08-19T12:35:41;25.70;99.90
19058;DHT22;9662;53.612;9.914;2022-08-19T12:38:09;25.70;99.90
19058;DHT22;9662;53.612;9.914;2022-08-19T12:40:36;25.60;99.90
19058;DHT22;9662;53.612;9.914;2022-08-19T12:43:04;25.50;99.90
19058;DHT22;9662;53.612;9.914;2022-08-19T12:45:31;25.90;99.90
19058;DHT22;9662;53.612;9.914;2022-08-19T12:47:58;26.00;99.90
19058;DHT22;9662;53.612;9.914;2022-08-19T12:50:26;26.10;99.90
19058;DHT22;9662;53.612;9.914;2022-08-19T12:52:53;25.80;99.90
19058;DHT22;9662;53.612;9.914;2022-08-19T12:55:20;25.80;99.90
19058;DHT22;9662;53.612;9.914;2022-08-19T12:57:47;25.60;99.90
19058;DHT22;9662;53.612;9.914;2022-08-19T13:00:17;25.00;99.90
19058;DHT22;9662;53.612;9.914;2022-08-19T13:02:48;25.40;99.90
19058;DHT22;9662;53.612;9.914;2022-08-19T13:05:18;25.70;99.90
19058;DHT22;9662;53.612;9.914;2022-08-19T13:07:48;25.90;99.90
19058;DHT22;9662;53.612;9.914;2022-08-19T13:10:17;25.70;99.90
19058;DHT22;9662;53.612;9.914;2022-08-19T13:12:47;25.70;99.90
19058;DHT22;9662;53.612;9.914;2022-08-19T13:15:15;24.90;99.90
19058;DHT22;9662;53.612;9.914;2022-08-19T13:17:46;25.60;99.90
19058;DHT22;9662;53.612;9.914;2022-08-19T13:20:15;26.10;99.90
19058;DHT22;9662;53.612;9.914;2022-08-19T13:22:42;26.60;99.90
19058;DHT22;9662;53.612;9.914;2022-08-19T13:25:12;26.50;99.90
19058;DHT22;9662;53.612;9.914;2022-08-19T13:27:41;26.60;99.90
19058;DHT22;9662;53.612;9.914;2022-08-19T13:30:10;26.80;99.90
19058;DHT22;9662;53.612;9.914;2022-08-19T13:32:55;27.00;99.90
19058;DHT22;9662;53.612;9.914;2022-08-19T13:35:40;26.70;99.90
19058;DHT22;9662;53.612;9.914;2022-08-19T13:38:08;26.70;99.90
19058;DHT22;9662;53.612;9.914;2022-08-19T13:40:38;26.70;99.90
19058;DHT22;9662;53.612;9.914;2022-08-19T13:43:05;26.80;99.90
19058;DHT22;9662;53.612;9.914;2022-08-19T13:45:33;26.60;99.90
19058;DHT22;9662;53.612;9.914;2022-08-19T13:48:02;26.40;99.90
19058;DHT22;9662;53.612;9.914;2022-08-19T13:50:32;25.90;99.90
19058;DHT22;9662;53.612;9.914;2022-08-19T13:53:00;26.00;99.90
19058;DHT22;9662;53.612;9.914;2022-08-19T13:55:27;25.40;99.90
19058;DHT22;9662;53.612;9.914;2022-08-19T13:57:58;25.40;99.90
19058;DHT22;9662;53.612;9.914;2022-08-19T14:00:28;25.40;99.90
19058;DHT22;9662;53.612;9.914;2022-08-19T14:02:56;25.60;99.90
19058;DHT22;9662;53.612;9.914;2022-08-19T14:05:25;25.80;99.90
19058;DHT22;9662;53.612;9.914;2022-08-19T14:07:52;25.90;99.90
19058;DHT22;9662;53.612;9.914;2022-08-19T14:10:20;25.80;99.90
19058;DHT22;9662;53.612;9.914;2022-08-19T14:12:47;26.00;99.90
19058;DHT22;9662;53.612;9.914;2022-08-19T14:15:15;26.10;99.90
19058;DHT22;9662;53.612;9.914;2022-08-19T14:17:44;25.60;99.90
19058;DHT22;9662;53.612;9.914;2022-08-19T14:20:13;25.80;99.90
19058;DHT22;9662;53.612;9.914;2022-08-19T14:22:41;25.80;99.90
19058;DHT22;9662;53.612;9.914;2022-08-19T14:25:11;25.30;99.90
19058;DHT22;9662;53.612;9.914;2022-08-19T14:27:39;25.20;99.90
19058;DHT22;9662;53.612;9.914;2022-08-19T14:30:08;24.90;99.90
19058;DHT22;9662;53.612;9.914;2022-08-19T14:32:37;25.00;99.90
19058;DHT22;9662;53.612;9.914;2022-08-19T14:35:05;25.30;99.90
19058;DHT22;9662;53.612;9.914;2022-08-19T14:37:33;25.10;99.90
19058;DHT22;9662;53.612;9.914;2022-08-19T14:40:00;25.50;99.90
19058;DHT22;9662;53.612;9.914;2022-08-19T14:42:27;25.30;99.90
19058;DHT22;9662;53.612;9.914;2022-08-19T14:44:57;25.20;99.90
19058;DHT22;9662;53.612;9.914;2022-08-19T14:47:24;25.00;99.90
19058;DHT22;9662;53.612;9.914;2022-08-19T14:49:54;25.20;99.90
19058;DHT22;9662;53.612;9.914;2022-08-19T14:52:20;25.20;99.90
19058;DHT22;9662;53.612;9.914;2022-08-19T14:54:47;25.70;99.90
19058;DHT22;9662;53.612;9.914;2022-08-19T14:57:15;25.90;99.90
19058;DHT22;9662;53.612;9.914;2022-08-19T14:59:42;25.50;99.90
19058;DHT22;9662;53.612;9.914;2022-08-19T15:02:09;25.70;99.90
19058;DHT22;9662;53.612;9.914;2022-08-19T15:04:36;25.90;99.90
19058;DHT22;9662;53.612;9.914;2022-08-19T15:07:04;26.20;99.90
19058;DHT22;9662;53.612;9.914;2022-08-19T15:09:31;26.20;99.90
19058;DHT22;9662;53.612;9.914;2022-08-19T15:11:58;25.70;99.90
19058;DHT22;9662;53.612;9.914;2022-08-19T15:14:26;26.00;99.90
19058;DHT22;9662;53.612;9.914;2022-08-19T15:16:53;25.70;99.90
19058;DHT22;9662;53.612;9.914;2022-08-19T15:19:20;26.10;99.90
19058;DHT22;9662;53.612;9.914;2022-08-19T15:21:47;26.20;99.90
19058;DHT22;9662;53.612;9.914;2022-08-19T15:24:15;26.50;99.90
19058;DHT22;9662;53.612;9.914;2022-08-19T15:26:42;26.60;99.90
19058;DHT22;9662;53.612;9.914;2022-08-19T15:29:09;26.70;99.90
19058;DHT22;9662;53.612;9.914;2022-08-19T15:31:39;26.60;99.90
19058;DHT22;9662;53.612;9.914;2022-08-19T15:34:06;26.30;99.90
19058;DHT22;9662;53.612;9.914;2022-08-19T15:36:33;26.00;99.90
19058;DHT22;9662;53.612;9.914;2022-08-19T15:39:01;26.00;99.90
19058;DHT22;9662;53.612;9.914;2022-08-19T15:41:30;26.40;99.90
19058;DHT22;9662;53.612;9.914;2022-08-19T15:43:59;26.50;99.90
19058;DHT22;9662;53.612;9.914;2022-08-19T15:46:29;26.60;99.90
19058;DHT22;9662;53.612;9.914;2022-08-19T15:48:57;26.20;99.90
19058;DHT22;9662;53.612;9.914;2022-08-19T15:51:24;26.20;99.90
19058;DHT22;9662;53.612;9.914;2022-08-19T15:53:51;26.00;99.90